createdAt,value
2018-02-05T00:00:59.158Z,0.00
2018-02-05T00:01:59.063Z,0.00
2018-02-05T00:02:59.230Z,0.00
2018-02-05T00:03:58.905Z,0.00
2018-02-05T00:04:58.810Z,0.00
2018-02-05T00:05:58.746Z,0.00
2018-02-05T00:06:58.652Z,0.00
2018-02-05T00:07:58.566Z,0.00
2018-02-05T00:08:58.482Z,0.00
2018-02-05T00:09:58.386Z,0.00
2018-02-05T00:10:58.315Z,0.00
2018-02-05T00:11:58.228Z,0.00
2018-02-05T00:12:58.140Z,0.00
2018-02-05T00:13:58.057Z,0.00
2018-02-05T00:14:57.980Z,0.00
2018-02-05T00:15:57.903Z,0.00
2018-02-05T00:16:57.804Z,0.00
2018-02-05T00:17:57.725Z,0.00
2018-02-05T00:18:57.650Z,0.00
2018-02-05T00:19:57.553Z,0.00
2018-02-05T00:20:57.464Z,0.00
2018-02-05T00:21:57.382Z,0.00
2018-02-05T00:22:57.310Z,0.00
2018-02-05T00:23:57.227Z,0.00
2018-02-05T00:24:57.128Z,0.00
2018-02-05T00:25:57.048Z,0.00
2018-02-05T00:26:56.976Z,0.00
2018-02-05T00:27:57.179Z,0.00
2018-02-05T00:28:56.793Z,0.00
2018-02-05T00:29:56.703Z,0.00
2018-02-05T00:30:56.635Z,0.00
2018-02-05T00:31:56.543Z,0.00
2018-02-05T00:32:56.456Z,0.00
2018-02-05T00:33:56.388Z,0.00
2018-02-05T00:34:56.287Z,0.00
2018-02-05T00:35:56.202Z,0.00
2018-02-05T00:36:56.120Z,0.00
2018-02-05T00:37:56.028Z,0.00
2018-02-05T00:38:55.951Z,0.00
2018-02-05T00:39:55.874Z,0.00
2018-02-05T00:40:55.777Z,0.00
2018-02-05T00:41:55.698Z,0.00
2018-02-05T00:42:55.616Z,0.00
2018-02-05T00:43:55.528Z,0.00
2018-02-05T00:44:55.447Z,0.00
2018-02-05T00:45:55.366Z,0.00
2018-02-05T00:46:55.280Z,0.00
2018-02-05T00:47:55.201Z,0.00
2018-02-05T00:48:55.103Z,0.00
2018-02-05T00:49:55.032Z,0.00
2018-02-05T00:50:54.939Z,0.00
2018-02-05T00:51:54.861Z,0.00
2018-02-05T00:52:54.774Z,0.00
2018-02-05T00:53:54.685Z,0.00
2018-02-05T00:54:54.594Z,0.00
2018-02-05T00:55:54.538Z,0.00
2018-02-05T00:56:54.435Z,0.00
2018-02-05T00:57:54.360Z,0.00
2018-02-05T00:58:54.268Z,0.00
2018-02-05T00:59:54.182Z,0.00
2018-02-05T01:00:54.112Z,0.00
2018-02-05T01:01:54.003Z,0.00
2018-02-05T01:02:53.918Z,0.00
2018-02-05T01:03:53.858Z,0.00
2018-02-05T01:04:53.756Z,0.00
2018-02-05T01:05:53.686Z,0.00
2018-02-05T01:06:53.587Z,0.00
2018-02-05T01:07:53.509Z,0.00
2018-02-05T01:08:53.423Z,0.00
2018-02-05T01:09:53.329Z,0.00
2018-02-05T01:10:53.248Z,0.00
2018-02-05T01:11:53.175Z,0.00
2018-02-05T01:12:53.080Z,0.00
2018-02-05T01:13:53.010Z,0.00
2018-02-05T01:14:52.915Z,0.00
2018-02-05T01:15:52.844Z,0.00
2018-02-05T01:16:52.762Z,0.00
2018-02-05T01:17:52.661Z,0.00
2018-02-05T01:18:52.588Z,0.00
2018-02-05T01:19:52.513Z,0.00
2018-02-05T01:20:52.407Z,0.00
2018-02-05T01:21:52.330Z,0.00
2018-02-05T01:22:52.262Z,0.00
2018-02-05T01:23:52.156Z,0.00
2018-02-05T01:24:52.080Z,0.00
2018-02-05T01:25:51.988Z,0.00
2018-02-05T01:26:51.909Z,0.00
2018-02-05T01:27:52.128Z,0.00
2018-02-05T01:28:51.736Z,0.00
2018-02-05T01:29:51.667Z,0.00
2018-02-05T01:30:51.581Z,0.00
2018-02-05T01:31:51.483Z,0.00
2018-02-05T01:32:51.414Z,0.00
2018-02-05T01:33:51.313Z,0.00
2018-02-05T01:34:51.240Z,0.00
2018-02-05T01:35:51.165Z,0.00
2018-02-05T01:36:51.062Z,0.00
2018-02-05T01:37:50.988Z,0.00
2018-02-05T01:38:50.902Z,0.00
2018-02-05T01:39:50.819Z,0.00
2018-02-05T01:40:50.739Z,0.00
2018-02-05T01:41:50.640Z,0.00
2018-02-05T01:42:50.560Z,0.00
2018-02-05T01:43:50.477Z,0.00
2018-02-05T01:44:50.390Z,0.00
2018-02-05T01:45:50.317Z,0.00
2018-02-05T01:46:50.233Z,0.00
2018-02-05T01:47:50.139Z,0.00
2018-02-05T01:48:50.056Z,0.00
2018-02-05T01:49:49.987Z,0.00
2018-02-05T01:50:49.888Z,0.00
2018-02-05T01:51:49.809Z,0.00
2018-02-05T01:52:49.723Z,0.00
2018-02-05T01:53:49.641Z,0.00
2018-02-05T01:54:49.556Z,0.00
2018-02-05T01:55:49.464Z,0.00
2018-02-05T01:56:49.394Z,0.00
2018-02-05T01:57:49.299Z,0.00
2018-02-05T01:58:49.212Z,0.00
2018-02-05T01:59:49.129Z,0.00
2018-02-05T02:00:49.049Z,0.00
2018-02-05T02:01:48.969Z,0.00
2018-02-05T02:02:48.878Z,0.00
2018-02-05T02:03:48.790Z,0.00
2018-02-05T02:04:48.716Z,0.00
2018-02-05T02:05:48.639Z,0.00
2018-02-05T02:06:48.541Z,0.00
2018-02-05T02:07:48.467Z,0.00
2018-02-05T02:08:48.375Z,0.00
2018-02-05T02:09:48.292Z,0.00
2018-02-05T02:10:48.211Z,0.00
2018-02-05T02:11:48.115Z,0.00
2018-02-05T02:12:48.044Z,0.00
2018-02-05T02:13:47.957Z,0.00
2018-02-05T02:14:47.865Z,0.00
2018-02-05T02:15:47.793Z,0.00
2018-02-05T02:16:47.714Z,0.00
2018-02-05T02:17:47.621Z,0.00
2018-02-05T02:18:47.533Z,0.00
2018-02-05T02:19:47.455Z,0.00
2018-02-05T02:20:47.366Z,0.00
2018-02-05T02:21:47.276Z,0.00
2018-02-05T02:22:47.196Z,0.00
2018-02-05T02:23:47.118Z,0.00
2018-02-05T02:24:47.032Z,0.00
2018-02-05T02:25:46.948Z,0.00
2018-02-05T02:26:46.870Z,0.00
2018-02-05T02:27:46.779Z,0.00
2018-02-05T02:28:46.699Z,0.00
2018-02-05T02:29:46.602Z,0.00
2018-02-05T02:30:46.527Z,0.00
2018-02-05T02:31:46.448Z,0.00
2018-02-05T02:32:46.359Z,0.00
2018-02-05T02:33:46.270Z,0.00
2018-02-05T02:34:46.196Z,0.00
2018-02-05T02:35:46.119Z,0.00
2018-02-05T02:36:46.018Z,0.00
2018-02-05T02:37:45.949Z,0.00
2018-02-05T02:38:45.860Z,0.00
2018-02-05T02:39:45.770Z,0.00
2018-02-05T02:40:45.685Z,0.00
2018-02-05T02:41:45.593Z,0.00
2018-02-05T02:42:45.821Z,0.00
2018-02-05T02:43:45.434Z,0.00
2018-02-05T02:44:45.345Z,0.00
2018-02-05T02:45:45.278Z,0.00
2018-02-05T02:46:45.197Z,0.00
2018-02-05T02:47:45.097Z,0.00
2018-02-05T02:48:45.011Z,0.00
2018-02-05T02:49:44.936Z,0.00
2018-02-05T02:50:44.845Z,0.00
2018-02-05T02:51:44.773Z,0.00
2018-02-05T02:52:44.680Z,0.00
2018-02-05T02:53:44.599Z,0.00
2018-02-05T02:54:44.521Z,0.00
2018-02-05T02:55:44.418Z,0.00
2018-02-05T02:56:44.349Z,0.00
2018-02-05T02:57:44.264Z,0.00
2018-02-05T02:58:44.171Z,0.00
2018-02-05T02:59:44.092Z,0.00
2018-02-05T03:00:44.001Z,0.00
2018-02-05T03:01:43.923Z,0.00
2018-02-05T03:02:43.835Z,0.00
2018-02-05T03:03:43.742Z,0.00
2018-02-05T03:04:43.676Z,0.00
2018-02-05T03:05:43.582Z,0.00
2018-02-05T03:06:43.496Z,0.00
2018-02-05T03:07:43.411Z,0.00
2018-02-05T03:08:43.338Z,0.00
2018-02-05T03:09:43.249Z,0.00
2018-02-05T03:10:43.164Z,0.00
2018-02-05T03:11:43.072Z,0.00
2018-02-05T03:12:42.998Z,0.00
2018-02-05T03:13:42.908Z,0.00
2018-02-05T03:14:42.823Z,0.00
2018-02-05T03:15:42.737Z,0.00
2018-02-05T03:16:42.676Z,0.00
2018-02-05T03:17:42.576Z,0.00
2018-02-05T03:18:42.493Z,0.00
2018-02-05T03:19:42.402Z,0.00
2018-02-05T03:20:42.326Z,0.00
2018-02-05T03:21:42.235Z,0.00
2018-02-05T03:22:42.147Z,0.00
2018-02-05T03:23:42.077Z,0.00
2018-02-05T03:24:41.987Z,0.00
2018-02-05T03:25:41.905Z,0.00
2018-02-05T03:26:41.828Z,0.00
2018-02-05T03:27:41.726Z,0.00
2018-02-05T03:28:41.652Z,0.00
2018-02-05T03:29:41.561Z,0.00
2018-02-05T03:30:41.478Z,0.00
2018-02-05T03:31:41.404Z,0.00
2018-02-05T03:32:41.312Z,0.00
2018-02-05T03:33:41.225Z,0.00
2018-02-05T03:34:41.139Z,0.00
2018-02-05T03:35:41.048Z,0.00
2018-02-05T03:36:40.978Z,0.00
2018-02-05T03:37:41.139Z,0.00
2018-02-05T03:38:40.799Z,0.00
2018-02-05T03:39:40.719Z,0.00
2018-02-05T03:40:40.636Z,0.00
2018-02-05T03:41:40.560Z,0.00
2018-02-05T03:42:40.465Z,0.00
2018-02-05T03:43:40.377Z,0.00
2018-02-05T03:44:40.303Z,0.00
2018-02-05T03:45:40.215Z,0.00
2018-02-05T03:46:40.124Z,0.00
2018-02-05T03:47:40.055Z,0.00
2018-02-05T03:48:39.965Z,0.00
2018-02-05T03:49:39.877Z,0.00
2018-02-05T03:50:39.790Z,0.00
2018-02-05T03:51:39.705Z,0.00
2018-02-05T03:52:39.632Z,0.00
2018-02-05T03:53:39.543Z,0.00
2018-02-05T03:54:39.449Z,0.00
2018-02-05T03:55:39.373Z,0.00
2018-02-05T03:56:39.289Z,0.00
2018-02-05T03:57:39.205Z,0.00
2018-02-05T03:58:39.134Z,0.00
2018-02-05T03:59:39.032Z,0.00
2018-02-05T04:00:38.954Z,0.00
2018-02-05T04:01:38.881Z,0.00
2018-02-05T04:02:38.774Z,0.00
2018-02-05T04:03:38.697Z,0.00
2018-02-05T04:04:38.607Z,0.00
2018-02-05T04:05:38.547Z,0.00
2018-02-05T04:06:38.445Z,0.00
2018-02-05T04:07:38.353Z,0.00
2018-02-05T04:08:38.282Z,0.00
2018-02-05T04:09:38.195Z,0.00
2018-02-05T04:10:38.104Z,0.00
2018-02-05T04:11:38.020Z,0.00
2018-02-05T04:12:37.939Z,0.00
2018-02-05T04:13:37.859Z,0.00
2018-02-05T04:14:37.777Z,0.00
2018-02-05T04:15:37.679Z,0.00
2018-02-05T04:16:37.596Z,0.00
2018-02-05T04:17:37.758Z,0.00
2018-02-05T04:18:37.429Z,0.00
2018-02-05T04:19:37.351Z,0.00
2018-02-05T04:20:37.252Z,0.00
2018-02-05T04:21:37.186Z,0.00
2018-02-05T04:22:37.089Z,0.00
2018-02-05T04:23:37.002Z,0.00
2018-02-05T04:24:36.937Z,0.00
2018-02-05T04:25:36.830Z,0.00
2018-02-05T04:26:36.747Z,0.00
2018-02-05T04:27:36.684Z,0.00
2018-02-05T04:28:36.580Z,0.00
2018-02-05T04:29:36.501Z,0.00
2018-02-05T04:30:36.413Z,0.00
2018-02-05T04:31:36.330Z,0.00
2018-02-05T04:32:36.248Z,0.00
2018-02-05T04:33:36.153Z,0.00
2018-02-05T04:34:36.081Z,0.00
2018-02-05T04:35:35.984Z,0.00
2018-02-05T04:36:35.907Z,0.00
2018-02-05T04:37:36.123Z,0.00
2018-02-05T04:38:35.735Z,0.00
2018-02-05T04:39:35.660Z,0.00
2018-02-05T04:40:35.568Z,0.00
2018-02-05T04:41:35.490Z,0.00
2018-02-05T04:42:35.396Z,0.00
2018-02-05T04:43:35.317Z,0.00
2018-02-05T04:44:35.237Z,0.00
2018-02-05T04:45:35.147Z,0.00
2018-02-05T04:46:35.063Z,0.00
2018-02-05T04:47:35.226Z,0.00
2018-02-05T04:48:34.884Z,0.00
2018-02-05T04:49:34.809Z,0.00
2018-02-05T04:50:34.724Z,0.00
2018-02-05T04:51:34.631Z,0.00
2018-02-05T04:52:34.563Z,0.00
2018-02-05T04:53:34.459Z,0.00
2018-02-05T04:54:34.382Z,0.00
2018-02-05T04:55:34.299Z,0.00
2018-02-05T04:56:34.207Z,0.00
2018-02-05T04:57:34.127Z,0.00
2018-02-05T04:58:34.043Z,0.00
2018-02-05T04:59:33.963Z,0.00
2018-02-05T05:00:33.874Z,0.00
2018-02-05T05:01:33.787Z,0.00
2018-02-05T05:02:33.707Z,0.00
2018-02-05T05:03:33.613Z,0.00
2018-02-05T05:04:33.535Z,0.00
2018-02-05T05:05:33.464Z,0.00
2018-02-05T05:06:33.363Z,0.00
2018-02-05T05:07:33.286Z,0.00
2018-02-05T05:08:33.197Z,0.00
2018-02-05T05:09:33.107Z,0.00
2018-02-05T05:10:33.036Z,0.00
2018-02-05T05:11:32.937Z,0.00
2018-02-05T05:12:32.853Z,0.00
2018-02-05T05:13:32.763Z,0.00
2018-02-05T05:14:32.689Z,0.00
2018-02-05T05:15:32.597Z,0.00
2018-02-05T05:16:32.514Z,0.00
2018-02-05T05:17:32.435Z,0.00
2018-02-05T05:18:32.336Z,0.00
2018-02-05T05:19:32.265Z,0.00
2018-02-05T05:20:32.178Z,0.00
2018-02-05T05:21:32.087Z,0.00
2018-02-05T05:22:32.002Z,0.00
2018-02-05T05:23:31.908Z,0.00
2018-02-05T05:24:31.843Z,0.00
2018-02-05T05:25:31.755Z,0.00
2018-02-05T05:26:31.661Z,0.00
2018-02-05T05:27:31.591Z,0.00
2018-02-05T05:28:31.501Z,0.00
2018-02-05T05:29:31.415Z,0.00
2018-02-05T05:30:31.344Z,0.00
2018-02-05T05:31:31.236Z,0.00
2018-02-05T05:32:31.152Z,0.00
2018-02-05T05:33:31.060Z,0.00
2018-02-05T05:34:30.980Z,0.00
2018-02-05T05:35:30.894Z,0.00
2018-02-05T05:36:30.814Z,0.00
2018-02-05T05:37:30.735Z,0.00
2018-02-05T05:38:30.648Z,0.00
2018-02-05T05:39:30.555Z,0.00
2018-02-05T05:40:30.468Z,0.00
2018-02-05T05:41:30.389Z,0.00
2018-02-05T05:42:30.300Z,0.00
2018-02-05T05:43:30.220Z,0.00
2018-02-05T05:44:30.185Z,0.00
2018-02-05T05:45:30.044Z,0.00
2018-02-05T05:46:29.974Z,0.00
2018-02-05T05:47:29.892Z,0.00
2018-02-05T05:48:29.791Z,0.00
2018-02-05T05:49:29.700Z,0.00
2018-02-05T05:50:29.619Z,0.00
2018-02-05T05:51:29.529Z,0.00
2018-02-05T05:52:29.454Z,0.00
2018-02-05T05:53:29.370Z,0.00
2018-02-05T05:54:29.282Z,0.00
2018-02-05T05:55:29.193Z,0.00
2018-02-05T05:56:29.111Z,0.00
2018-02-05T05:57:29.015Z,0.00
2018-02-05T05:58:28.937Z,0.00
2018-02-05T05:59:28.874Z,0.00
2018-02-05T06:00:28.763Z,0.00
2018-02-05T06:01:28.680Z,0.00
2018-02-05T06:02:28.842Z,0.00
2018-02-05T06:03:28.506Z,0.00
2018-02-05T06:04:28.444Z,0.00
2018-02-05T06:05:28.349Z,0.00
2018-02-05T06:06:28.255Z,0.00
2018-02-05T06:07:28.170Z,0.00
2018-02-05T06:08:28.077Z,4.00
2018-02-05T06:09:28.000Z,0.00
2018-02-05T06:10:27.924Z,0.00
2018-02-05T06:11:27.839Z,4.00
2018-02-05T06:12:27.747Z,4.00
2018-02-05T06:13:27.655Z,4.00
2018-02-05T06:14:27.570Z,4.00
2018-02-05T06:15:27.496Z,4.00
2018-02-05T06:16:27.406Z,8.00
2018-02-05T06:17:27.325Z,8.00
2018-02-05T06:18:27.250Z,8.00
2018-02-05T06:19:27.141Z,12.00
2018-02-05T06:20:27.062Z,12.00
2018-02-05T06:21:26.996Z,12.00
2018-02-05T06:22:26.893Z,16.00
2018-02-05T06:23:26.814Z,16.00
2018-02-05T06:24:26.718Z,20.00
2018-02-05T06:25:26.651Z,24.00
2018-02-05T06:26:26.552Z,28.00
2018-02-05T06:27:26.468Z,28.00
2018-02-05T06:28:26.405Z,32.00
2018-02-05T06:29:26.293Z,36.00
2018-02-05T06:30:26.204Z,48.00
2018-02-05T06:31:26.129Z,48.00
2018-02-05T06:32:26.043Z,56.00
2018-02-05T06:33:25.977Z,60.00
2018-02-05T06:34:25.878Z,72.00
2018-02-05T06:35:25.792Z,76.00
2018-02-05T06:36:25.703Z,84.00
2018-02-05T06:37:25.907Z,92.00
2018-02-05T06:38:25.525Z,100.00
2018-02-05T06:39:25.449Z,112.00
2018-02-05T06:40:25.368Z,124.00
2018-02-05T06:41:25.272Z,136.00
2018-02-05T06:42:25.201Z,144.00
2018-02-05T06:43:25.093Z,160.00
2018-02-05T06:44:25.033Z,180.00
2018-02-05T06:45:24.946Z,184.00
2018-02-05T06:46:24.902Z,200.00
2018-02-05T06:47:25.030Z,212.00
2018-02-05T06:48:24.675Z,232.00
2018-02-05T06:49:24.603Z,252.00
2018-02-05T06:50:24.509Z,268.00
2018-02-05T06:51:24.430Z,280.00
2018-02-05T06:52:24.343Z,304.00
2018-02-05T06:53:24.248Z,320.00
2018-02-05T06:54:24.202Z,340.00
2018-02-05T06:55:24.071Z,352.00
2018-02-05T06:56:24.002Z,360.00
2018-02-05T06:57:24.210Z,380.00
2018-02-05T06:58:23.826Z,420.00
2018-02-05T06:59:23.751Z,452.00
2018-02-05T07:00:23.645Z,464.00
2018-02-05T07:01:23.574Z,492.00
2018-02-05T07:02:23.737Z,524.00
2018-02-05T07:03:23.400Z,524.00
2018-02-05T07:04:23.312Z,524.00
2018-02-05T07:05:23.227Z,540.00
2018-02-05T07:06:23.138Z,560.00
2018-02-05T07:07:23.063Z,576.00
2018-02-05T07:08:22.976Z,600.00
2018-02-05T07:09:22.891Z,620.00
2018-02-05T07:10:22.802Z,640.00
2018-02-05T07:11:22.714Z,660.00
2018-02-05T07:12:22.638Z,680.00
2018-02-05T07:13:22.545Z,700.00
2018-02-05T07:14:22.468Z,708.00
2018-02-05T07:15:22.382Z,712.00
2018-02-05T07:16:22.287Z,768.00
2018-02-05T07:17:22.206Z,848.00
2018-02-05T07:18:22.128Z,872.00
2018-02-05T07:19:22.037Z,940.00
2018-02-05T07:20:21.953Z,988.00
2018-02-05T07:21:21.862Z,904.00
2018-02-05T07:22:21.774Z,876.00
2018-02-05T07:23:21.692Z,880.00
2018-02-05T07:24:21.619Z,904.00
2018-02-05T07:25:21.527Z,936.00
2018-02-05T07:26:21.490Z,968.00
2018-02-05T07:27:21.351Z,1016.00
2018-02-05T07:28:21.267Z,1044.00
2018-02-05T07:29:21.193Z,1068.00
2018-02-05T07:30:21.105Z,1104.00
2018-02-05T07:31:21.032Z,1100.00
2018-02-05T07:32:20.923Z,1124.00
2018-02-05T07:33:20.842Z,1208.00
2018-02-05T07:34:20.760Z,1348.00
2018-02-05T07:35:20.678Z,1464.00
2018-02-05T07:36:20.597Z,1628.00
2018-02-05T07:37:20.799Z,2036.00
2018-02-05T07:38:20.444Z,2448.00
2018-02-05T07:39:20.332Z,2492.00
2018-02-05T07:40:20.251Z,2696.00
2018-02-05T07:41:20.172Z,2484.00
2018-02-05T07:42:20.082Z,2440.00
2018-02-05T07:43:20.005Z,2564.00
2018-02-05T07:44:19.909Z,2700.00
2018-02-05T07:45:19.830Z,2500.00
2018-02-05T07:46:19.755Z,2312.00
2018-02-05T07:47:19.653Z,2608.00
2018-02-05T07:48:19.566Z,2712.00
2018-02-05T07:49:19.482Z,2808.00
2018-02-05T07:50:19.406Z,2788.00
2018-02-05T07:51:19.327Z,2720.00
2018-02-05T07:52:19.260Z,2636.00
2018-02-05T07:53:19.296Z,2580.00
2018-02-05T07:54:19.128Z,2356.00
2018-02-05T07:55:19.053Z,2384.00
2018-02-05T07:56:18.963Z,2524.00
2018-02-05T07:57:19.298Z,2600.00
2018-02-05T07:58:18.720Z,2656.00
2018-02-05T07:59:18.631Z,2660.00
2018-02-05T08:00:18.562Z,2552.00
2018-02-05T08:01:18.470Z,2356.00
2018-02-05T08:02:18.378Z,2276.00
2018-02-05T08:03:18.660Z,2204.00
2018-02-05T08:04:18.379Z,2160.00
2018-02-05T08:05:18.134Z,2360.00
2018-02-05T08:06:18.060Z,2900.00
2018-02-05T08:07:17.985Z,2720.00
2018-02-05T08:08:18.233Z,2536.00
2018-02-05T08:09:18.037Z,2592.00
2018-02-05T08:10:17.801Z,2508.00
2018-02-05T08:11:17.728Z,2268.00
2018-02-05T08:12:17.575Z,2268.00
2018-02-05T08:13:17.457Z,2352.00
2018-02-05T08:14:17.444Z,2800.00
2018-02-05T08:15:17.374Z,2836.00
2018-02-05T08:16:17.220Z,2936.00
2018-02-05T08:17:17.140Z,2948.00
2018-02-05T08:18:17.068Z,2972.00
2018-02-05T08:19:16.952Z,2976.00
2018-02-05T08:20:16.854Z,2836.00
2018-02-05T08:21:16.784Z,2832.00
2018-02-05T08:22:16.727Z,2788.00
2018-02-05T08:23:16.604Z,2788.00
2018-02-05T08:24:16.533Z,2896.00
2018-02-05T08:25:16.448Z,3104.00
2018-02-05T08:26:16.355Z,3252.00
2018-02-05T08:27:16.286Z,3372.00
2018-02-05T08:28:16.182Z,3452.00
2018-02-05T08:29:16.111Z,3436.00
2018-02-05T08:30:16.038Z,3352.00
2018-02-05T08:31:15.933Z,3256.00
2018-02-05T08:32:15.864Z,3156.00
2018-02-05T08:33:15.925Z,3336.00
2018-02-05T08:34:15.690Z,3140.00
2018-02-05T08:35:15.834Z,3236.00
2018-02-05T08:36:15.643Z,3436.00
2018-02-05T08:37:15.556Z,3516.00
2018-02-05T08:38:15.382Z,3644.00
2018-02-05T08:39:15.302Z,3800.00
2018-02-05T08:40:15.246Z,3808.00
2018-02-05T08:41:15.162Z,3888.00
2018-02-05T08:42:15.031Z,4152.00
2018-02-05T08:43:14.963Z,4468.00
2018-02-05T08:44:14.838Z,4760.00
2018-02-05T08:45:14.778Z,4860.00
2018-02-05T08:46:14.676Z,4816.00
2018-02-05T08:47:14.582Z,4808.00
2018-02-05T08:48:14.516Z,4848.00
2018-02-05T08:49:14.434Z,4864.00
2018-02-05T08:50:14.334Z,4852.00
2018-02-05T08:51:14.253Z,4704.00
2018-02-05T08:52:14.171Z,4564.00
2018-02-05T08:53:14.093Z,4556.00
2018-02-05T08:54:14.001Z,4556.00
2018-02-05T08:55:13.910Z,4536.00
2018-02-05T08:56:13.834Z,4664.00
2018-02-05T08:57:13.762Z,4812.00
2018-02-05T08:58:13.662Z,5024.00
2018-02-05T08:59:13.591Z,5376.00
2018-02-05T09:00:13.516Z,5540.00
2018-02-05T09:01:13.410Z,5452.00
2018-02-05T09:02:13.336Z,5448.00
2018-02-05T09:03:13.268Z,5388.00
2018-02-05T09:04:13.158Z,5404.00
2018-02-05T09:05:13.081Z,5264.00
2018-02-05T09:06:13.019Z,5176.00
2018-02-05T09:07:13.064Z,5228.00
2018-02-05T09:08:12.838Z,5152.00
2018-02-05T09:09:12.754Z,5052.00
2018-02-05T09:10:12.664Z,5008.00
2018-02-05T09:11:12.604Z,5376.00
2018-02-05T09:12:12.513Z,5640.00
2018-02-05T09:13:12.420Z,5180.00
2018-02-05T09:14:12.375Z,5448.00
2018-02-05T09:15:12.241Z,4680.00
2018-02-05T09:16:12.164Z,5984.00
2018-02-05T09:17:12.079Z,5020.00
2018-02-05T09:18:11.989Z,5388.00
2018-02-05T09:19:11.917Z,5632.00
2018-02-05T09:20:11.866Z,5668.00
2018-02-05T09:21:11.780Z,5704.00
2018-02-05T09:22:11.666Z,5868.00
2018-02-05T09:23:11.588Z,5964.00
2018-02-05T09:24:11.490Z,5928.00
2018-02-05T09:25:11.412Z,5616.00
2018-02-05T09:26:11.546Z,5372.00
2018-02-05T09:27:11.375Z,5508.00
2018-02-05T09:28:11.214Z,5672.00
2018-02-05T09:29:11.503Z,5780.00
2018-02-05T09:30:11.020Z,5780.00
2018-02-05T09:31:10.993Z,5552.00
2018-02-05T09:32:10.972Z,5088.00
2018-02-05T09:33:10.826Z,4508.00
2018-02-05T09:34:11.027Z,4072.00
2018-02-05T09:35:10.646Z,3712.00
2018-02-05T09:36:10.488Z,3316.00
2018-02-05T09:37:10.723Z,2976.00
2018-02-05T09:38:10.554Z,2820.00
2018-02-05T09:39:10.288Z,2832.00
2018-02-05T09:40:10.168Z,2856.00
2018-02-05T09:41:10.090Z,2868.00
2018-02-05T09:42:10.014Z,2492.00
2018-02-05T09:43:09.919Z,2484.00
2018-02-05T09:44:09.837Z,2444.00
2018-02-05T09:45:09.745Z,2480.00
2018-02-05T09:46:09.659Z,2724.00
2018-02-05T09:47:09.582Z,2832.00
2018-02-05T09:48:09.498Z,2684.00
2018-02-05T09:49:09.406Z,2672.00
2018-02-05T09:50:09.344Z,2740.00
2018-02-05T09:51:09.245Z,2736.00
2018-02-05T09:52:09.166Z,2724.00
2018-02-05T09:53:09.086Z,2716.00
2018-02-05T09:54:09.001Z,2696.00
2018-02-05T09:55:08.911Z,2648.00
2018-02-05T09:56:08.820Z,2696.00
2018-02-05T09:57:08.788Z,2684.00
2018-02-05T09:58:08.689Z,2696.00
2018-02-05T09:59:08.577Z,2724.00
2018-02-05T10:00:08.496Z,2720.00
2018-02-05T10:01:08.634Z,2708.00
2018-02-05T10:02:08.457Z,2732.00
2018-02-05T10:03:08.885Z,2740.00
2018-02-05T10:04:08.184Z,2736.00
2018-02-05T10:05:08.201Z,2768.00
2018-02-05T10:06:08.149Z,2804.00
2018-02-05T10:07:08.130Z,2852.00
2018-02-05T10:08:07.915Z,2860.00
2018-02-05T10:09:07.815Z,2860.00
2018-02-05T10:10:07.661Z,2876.00
2018-02-05T10:11:07.569Z,2924.00
2018-02-05T10:12:07.697Z,2928.00
2018-02-05T10:13:07.624Z,2948.00
2018-02-05T10:14:07.322Z,3028.00
2018-02-05T10:15:07.524Z,3044.00
2018-02-05T10:16:07.177Z,3036.00
2018-02-05T10:17:07.185Z,3068.00
2018-02-05T10:18:07.770Z,3088.00
2018-02-05T10:19:06.934Z,3156.00
2018-02-05T10:20:07.024Z,3256.00
2018-02-05T10:21:07.212Z,3528.00
2018-02-05T10:22:06.777Z,3608.00
2018-02-05T10:23:06.574Z,3512.00
2018-02-05T10:24:06.787Z,3404.00
2018-02-05T10:25:07.085Z,3612.00
2018-02-05T10:26:06.322Z,2616.00
2018-02-05T10:27:06.758Z,3760.00
2018-02-05T10:28:06.744Z,3100.00
2018-02-05T10:29:06.418Z,2492.00
2018-02-05T10:30:06.586Z,2212.00
2018-02-05T10:31:06.426Z,3584.00
2018-02-05T10:32:05.811Z,2792.00
2018-02-05T10:33:05.901Z,3584.00
2018-02-05T10:34:05.687Z,2128.00
2018-02-05T10:35:05.959Z,2064.00
2018-02-05T10:36:05.725Z,2240.00
2018-02-05T10:37:05.402Z,3764.00
2018-02-05T10:38:05.332Z,3784.00
2018-02-05T10:39:05.240Z,2224.00
2018-02-05T10:40:05.411Z,2116.00
2018-02-05T10:41:05.302Z,2168.00
2018-02-05T10:42:04.989Z,2180.00
2018-02-05T10:43:05.298Z,2360.00
2018-02-05T10:44:04.860Z,2864.00
2018-02-05T10:45:04.724Z,3292.00
2018-02-05T10:46:05.266Z,3368.00
2018-02-05T10:47:05.244Z,3808.00
2018-02-05T10:48:04.932Z,3888.00
2018-02-05T10:49:05.094Z,3420.00
2018-02-05T10:50:04.910Z,4712.00
2018-02-05T10:51:04.876Z,2840.00
2018-02-05T10:52:04.141Z,2644.00
2018-02-05T10:53:04.053Z,4440.00
2018-02-05T10:54:04.038Z,4704.00
2018-02-05T10:55:03.896Z,3204.00
2018-02-05T10:56:04.184Z,3900.00
2018-02-05T10:57:04.287Z,4660.00
2018-02-05T10:58:04.280Z,5524.00
2018-02-05T10:59:03.553Z,5784.00
2018-02-05T11:00:03.483Z,6216.00
2018-02-05T11:01:03.392Z,7748.00
2018-02-05T11:02:03.304Z,7404.00
2018-02-05T11:03:03.227Z,6864.00
2018-02-05T11:04:03.142Z,7392.00
2018-02-05T11:05:03.049Z,7132.00
2018-02-05T11:06:02.975Z,9796.00
2018-02-05T11:07:02.882Z,9784.00
2018-02-05T11:08:02.806Z,8016.00
2018-02-05T11:09:02.715Z,7592.00
2018-02-05T11:10:02.637Z,6964.00
2018-02-05T11:11:02.553Z,7008.00
2018-02-05T11:12:02.472Z,6920.00
2018-02-05T11:13:02.380Z,7008.00
2018-02-05T11:14:02.302Z,7588.00
2018-02-05T11:15:02.268Z,8044.00
2018-02-05T11:16:02.262Z,7820.00
2018-02-05T11:17:02.090Z,8032.00
2018-02-05T11:18:01.971Z,8108.00
2018-02-05T11:19:01.878Z,9156.00
2018-02-05T11:20:01.812Z,9596.00
2018-02-05T11:21:01.714Z,9836.00
2018-02-05T11:22:01.632Z,9060.00
2018-02-05T11:23:01.582Z,7772.00
2018-02-05T11:24:01.481Z,8708.00
2018-02-05T11:25:01.411Z,8636.00
2018-02-05T11:26:01.305Z,8456.00
2018-02-05T11:27:01.233Z,8356.00
2018-02-05T11:28:01.182Z,6380.00
2018-02-05T11:29:01.075Z,6372.00
2018-02-05T11:30:00.975Z,5768.00
2018-02-05T11:31:00.909Z,5096.00
2018-02-05T11:32:00.849Z,7116.00
2018-02-05T11:33:00.737Z,7828.00
2018-02-05T11:34:00.679Z,8264.00
2018-02-05T11:35:00.583Z,6704.00
2018-02-05T11:36:00.514Z,9224.00
2018-02-05T11:37:00.405Z,9848.00
2018-02-05T11:38:00.330Z,10176.00
2018-02-05T11:39:00.249Z,10568.00
2018-02-05T11:40:00.153Z,8780.00
2018-02-05T11:41:00.082Z,7696.00
2018-02-05T11:42:00.008Z,9660.00
2018-02-05T11:43:00.078Z,8328.00
2018-02-05T11:43:59.846Z,11572.00
2018-02-05T11:44:59.756Z,11128.00
2018-02-05T11:45:59.679Z,9980.00
2018-02-05T11:46:59.897Z,9372.00
2018-02-05T11:47:59.570Z,8124.00
2018-02-05T11:48:59.795Z,6084.00
2018-02-05T11:49:59.356Z,8692.00
2018-02-05T11:50:59.267Z,8992.00
2018-02-05T11:51:59.207Z,9008.00
2018-02-05T11:52:59.111Z,9000.00
2018-02-05T11:53:59.036Z,8592.00
2018-02-05T11:54:59.008Z,8136.00
2018-02-05T11:55:59.114Z,7860.00
2018-02-05T11:56:59.031Z,5872.00
2018-02-05T11:57:58.714Z,4700.00
2018-02-05T11:58:58.634Z,4384.00
2018-02-05T11:59:58.560Z,4084.00
2018-02-05T12:00:58.503Z,3500.00
2018-02-05T12:01:58.406Z,5416.00
2018-02-05T12:02:58.309Z,5376.00
2018-02-05T12:03:58.233Z,4068.00
2018-02-05T12:04:58.149Z,4600.00
2018-02-05T12:05:58.090Z,4520.00
2018-02-05T12:06:57.986Z,4176.00
2018-02-05T12:07:57.913Z,4008.00
2018-02-05T12:08:57.830Z,4436.00
2018-02-05T12:09:57.759Z,6228.00
2018-02-05T12:10:57.687Z,8876.00
2018-02-05T12:11:57.587Z,7244.00
2018-02-05T12:12:57.511Z,9856.00
2018-02-05T12:13:57.429Z,8800.00
2018-02-05T12:14:57.345Z,10544.00
2018-02-05T12:15:57.288Z,8976.00
2018-02-05T12:16:57.187Z,7680.00
2018-02-05T12:17:57.111Z,7312.00
2018-02-05T12:18:57.041Z,6472.00
2018-02-05T12:19:56.961Z,6208.00
2018-02-05T12:20:56.866Z,6220.00
2018-02-05T12:21:56.787Z,6076.00
2018-02-05T12:22:56.697Z,5756.00
2018-02-05T12:23:56.637Z,3604.00
2018-02-05T12:24:56.547Z,5456.00
2018-02-05T12:25:56.459Z,4872.00
2018-02-05T12:26:56.410Z,2696.00
2018-02-05T12:27:56.308Z,2628.00
2018-02-05T12:28:56.243Z,2516.00
2018-02-05T12:29:56.166Z,2256.00
2018-02-05T12:30:56.059Z,2064.00
2018-02-05T12:31:55.990Z,1936.00
2018-02-05T12:32:55.912Z,1860.00
2018-02-05T12:33:55.836Z,1812.00
2018-02-05T12:34:55.753Z,1804.00
2018-02-05T12:35:55.675Z,1852.00
2018-02-05T12:36:55.587Z,1868.00
2018-02-05T12:37:55.511Z,1924.00
2018-02-05T12:38:55.423Z,1968.00
2018-02-05T12:39:55.344Z,1984.00
2018-02-05T12:40:55.258Z,1896.00
2018-02-05T12:41:55.189Z,1884.00